Long Bennington, United Kingdom
Current Conditions -  °F | °C
As of 10:50 PM on Thursday 27 Nov 2014 (Local Time) from EGYD Reporting Station
Overcast Overcast  
Wind Chill:   Ceiling: 100
Heat Index:   Visibility: 0.34mi
Dew Point:   Wind: 6mph
Humidity: 100%   Direction: 80°E
Pressure: 29.62"   Gusts: NA
Location:  52.99°N, 0.76°W
Report Text: EGYD 272250Z AUTO 08005KT 0550 // OVC001/// 08/08 Q1003
Loading
Personal Weather Stations






























Interactive Weather Map New forecast layout! Learn more

10-Day Weather Forecast

Advertisements
Track Severe Weather on mobile